Аэропорт: Бегишево. Набережные Челны, Нижнекамск

ICAO: UWKE

METAR:
2018/11/19 10:00
UWKE 191000Z 23005MPS 2000 SN OVC005 M01/M02 Q1022 R21/550343 NOSIG RMK OBST OBSC QFE749/0999
METAR:
2018/11/19 09:21
TAF COR UWKE 190745Z 1909/2009 25005G10MPS 2100 -SNRA BR OVC005 
      TEMPO 1909/1915 27003G09MPS 0500 FZDZ FZFG OVC002 
      TEMPO 1915/1921 27006MPS 3100 -SNRA -FZRA OVC011 
      TEMPO 1921/2009 33003G09MPS 1000 -SN BR OVC003